Latest Coastal Weather Observations for Hopetoun North

IDW60701

Issued at 8:03 pm WST Friday 29 April 2016 (issued every 10 minutes, with the page automatically refreshed every 10 minutes)

About coastal observations | Map of coastal stations | Coastal observations for WA | Marine services | Other Formats
Station Details ID: 009961 Name: HOPETOUN NORTH Lat: -33.93 Lon: 120.13 Height: 26.0 m
Data from the previous 72 hours. | See also: Recent months at Hopetoun North
Date/Time
WST
Temp

°C
Wind Pressure Rain
since 9am
mm
Weather Cloud Vis
km
Sea
Height
m
Swell
Dir
 
Speed
knots
Gust
knots
hPa Trend Height
m
Period
s
Dir
29/08:00pm - SW 13 19 1010.7 - 9.6 - - - - - - -
29/07:30pm - SW 11 20 1010.5 - 7.2 - - - - - - -
29/07:00pm - SW 13 20 1010.2 - 4.2 - - - - - - -
29/06:30pm - SW 15 21 1009.7 - 1.2 - - - - - - -
29/06:00pm - SW 18 26 1009.1 - 1.0 Rain - - - - - -
29/05:44pm - WSW 17 30 1008.5 - 0.2 - - - - - - -
29/05:30pm - W 13 21 1008.0 - 0.2 - - - - - - -
29/05:00pm - WNW 9 15 1007.8 - 0.2 - - - - - - -
29/04:30pm - WNW 10 16 1007.7 - 0.2 - - - - - - -
29/04:00pm - WNW 10 16 1007.9 - 0.2 - - - - - - -
29/03:30pm - WNW 12 23 1008.0 - 0.2 - - - - - - -
29/03:06pm - W 16 27 1008.0 - 0.2 - - - - - - -
29/03:00pm - W 17 27 1008.0 - 0.2 - - - - - - -
29/02:31pm - WNW 15 25 1008.3 - 0.2 - - - - - - -
29/02:30pm - WNW 16 25 1008.2 - 0.2 - - - - - - -
29/02:00pm - WNW 16 26 1008.4 - 0.2 - - - - - - -
29/01:30pm - W 15 30 1008.6 - 0.2 - - - - - - -
29/01:00pm - WNW 17 27 1008.5 - 0.0 - - - - - - -
29/12:47pm - WNW 15 26 1008.5 - 0.0 - - - - - - -
29/12:30pm - WNW 16 24 1008.7 - 0.0 - - - - - - -
29/12:18pm - WNW 15 27 1008.9 - 0.0 - - - - - - -
29/12:00pm - WNW 12 22 1009.1 - 0.0 - - - - - - -
29/11:31am - WNW 15 25 1009.2 - 0.0 - - - - - - -
29/11:30am - WNW 16 25 1009.3 - 0.0 - - - - - - -
29/11:12am - WNW 15 26 1009.5 - 0.0 - - - - - - -
29/11:00am - WNW 16 23 1009.7 - 0.0 - - - - - - -
29/10:30am - WNW 16 23 1010.2 - 0.0 - - - - - - -
29/10:12am - WNW 15 25 1010.2 - 0.0 - - - - - - -
29/10:00am - WNW 13 25 1010.4 - 0.0 - - - - - - -
29/09:30am - WNW 12 17 1010.9 - 0.0 - - - - - - -
29/09:00am - WNW 11 17 1011.3 - 1.6 - - - - - - -
29/08:30am - NW 7 12 1011.5 - 1.6 - - - - - - -
29/08:00am - NW 7 11 1011.5 - 1.6 - - - - - - -
29/07:30am - NNW 8 11 1011.6 - 1.6 - - - - - - -
29/07:00am - NW 8 12 1011.6 - 1.6 - - - - - - -
29/06:30am - NW 8 13 1011.6 - 1.6 - - - - - - -
29/06:00am - WNW 11 16 1011.4 - 1.6 - - - - - - -
29/05:30am - WNW 10 18 1011.4 - 1.6 - - - - - - -
29/05:00am - WNW 10 18 1011.2 - 1.6 - - - - - - -
29/04:30am - WNW 9 13 1011.3 - 1.6 - - - - - - -
29/04:00am - WNW 10 16 1011.4 - 1.6 - - - - - - -
29/03:30am - WNW 9 15 1011.6 - 1.6 - - - - - - -
29/03:00am - WNW 10 14 1011.6 - 1.6 - - - - - - -
29/02:30am - WNW 9 15 1011.8 - 1.6 - - - - - - -
29/02:00am - WNW 10 15 1012.1 - 1.6 - - - - - - -
29/01:30am - WNW 9 13 1012.0 - 1.6 - - - - - - -
29/01:00am - WNW 9 13 1011.8 - 1.6 - - - - - - -
29/12:30am - WNW 9 13 1011.7 - 1.6 - - - - - - -
29/12:00am - WNW 9 14 1011.6 - 1.6 - - - - - - -
 
Date/Time
WST
Temp

°C
Wind Pressure Rain
since 9am
mm
Weather Cloud Vis
km
Sea
Height
m
Swell
Dir
 
Speed
knots
Gust
knots
hPa Trend Height
m
Period
s
Dir
28/11:30pm - WNW 7 10 1011.7 - 1.6 - - - - - - -
28/11:00pm - WNW 7 10 1011.9 - 1.6 - - - - - - -
28/10:30pm - WNW 8 14 1012.1 - 1.6 - - - - - - -
28/10:00pm - WNW 7 11 1012.3 - 1.6 - - - - - - -
28/09:30pm - NW 6 10 1012.2 - 1.6 - - - - - - -
28/09:00pm - WNW 6 9 1012.1 - 1.6 - - - - - - -
28/08:30pm - W 9 14 1012.0 - 1.6 - - - - - - -
28/08:00pm - WSW 14 21 1011.8 - 1.6 - - - - - - -
28/07:30pm - WSW 14 22 1011.6 - 1.6 - - - - - - -
28/07:00pm - WSW 13 19 1011.3 - 1.6 - - - - - - -
28/06:30pm - WSW 15 23 1010.8 - 1.6 - - - - - - -
28/06:00pm - WSW 12 18 1010.3 - 1.6 - - - - - - -
28/05:45pm - WSW 16 26 1010.1 - 1.6 - - - - - - -
28/05:30pm - WSW 16 25 1009.9 - 1.6 - - - - - - -
28/05:14pm - SW 19 29 1009.6 - 1.6 - - - - - - -
28/05:00pm - WSW 13 20 1009.5 - 1.6 - - - - - - -
28/04:30pm - WSW 16 23 1009.2 - 1.6 - - - - - - -
28/04:00pm - WSW 16 25 1008.7 - 1.6 - - - - - - -
28/03:30pm - WSW 17 25 1008.4 - 1.6 - - - - - - -
28/03:05pm - WSW 17 27 1008.1 - 1.6 - - - - - - -
28/03:00pm - WSW 19 27 1007.9 - 1.4 Rain - - - - - -
28/02:30pm - WNW 16 27 1007.0 - 1.0 - - - - - - -
28/02:00pm - W 19 31 1007.0 - 0.2 - - - - - - -
28/01:30pm - WNW 16 28 1006.0 - 0.0 - - - - - - -
28/01:00pm - NW 17 27 1006.2 - 0.0 - - - - - - -
28/12:30pm - NW 17 29 1006.6 - 0.0 - - - - - - -
28/12:00pm - NW 18 31 1007.1 - 0.0 - - - - - - -
28/11:30am - NW 21 32 1007.5 - 0.0 - - - - - - -
28/11:04am - NW 17 31 1007.9 - 0.0 - - - - - - -
28/11:00am - NW 17 26 1008.1 - 0.0 - - - - - - -
28/10:33am - NW 15 25 1009.4 - 0.0 - - - - - - -
28/10:30am - NW 14 25 1009.5 - 0.0 - - - - - - -
28/10:07am - NW 15 27 1009.7 - 0.0 - - - - - - -
28/10:00am - NW 11 25 1010.0 - 0.0 - - - - - - -
28/09:30am - NNW 11 17 1010.5 - 0.0 - - - - - - -
28/09:00am - NNW 14 21 1010.8 - 0.0 - - - - - - -
28/08:30am - NNW 12 21 1011.2 - 0.0 - - - - - - -
28/08:00am - NNW 10 15 1011.5 - 0.0 - - - - - - -
28/07:30am - N 7 10 1011.5 - 0.0 - - - - - - -
28/07:00am - NNW 8 11 1011.4 - 0.0 - - - - - - -
28/06:30am - NNW 6 10 1011.6 - 0.0 - - - - - - -
28/06:00am - N 8 12 1011.7 - 0.0 - - - - - - -
28/05:30am - NNW 8 12 1012.1 - 0.0 - - - - - - -
28/05:00am - NNW 8 12 1012.2 - 0.0 - - - - - - -
28/04:30am - NNW 8 12 1012.1 - 0.0 - - - - - - -
28/04:00am - NNW 7 12 1012.2 - 0.0 - - - - - - -
28/03:30am - NNW 6 8 1012.4 - 0.0 - - - - - - -
28/03:00am - NNW 5 7 1013.0 - 0.0 - - - - - - -
28/02:30am - NNW 5 9 1013.1 - 0.0 - - - - - - -
28/02:00am - NW 5 7 1013.2 - 0.0 - - - - - - -
28/01:30am - NNW 5 7 1013.3 - 0.0 - - - - - - -
28/01:00am - NNW 4 7 1013.3 - 0.0 - - - - - - -
28/12:30am - NNW 7 9 1013.5 - 0.0 - - - - - - -
28/12:00am - NNE 3 4 1013.7 - 0.0 - - - - - - -
 
Date/Time
WST
Temp

°C
Wind Pressure Rain
since 9am
mm
Weather Cloud Vis
km
Sea
Height
m
Swell
Dir
 
Speed
knots
Gust
knots
hPa Trend Height
m
Period
s
Dir
27/11:30pm - NNW 2 3 1014.1 - 0.0 - - - - - - -
27/11:00pm - NNW 3 5 1014.4 - 0.0 - - - - - - -
27/10:30pm - NW 5 7 1014.6 - 0.0 - - - - - - -
27/10:00pm - NNW 4 6 1014.9 - 0.0 - - - - - - -
27/09:30pm - NNW 5 7 1015.0 - 0.0 - - - - - - -
27/09:00pm - NNW 4 6 1015.1 - 0.0 - - - - - - -
27/08:30pm - NNW 5 7 1015.1 - 0.0 - - - - - - -
27/08:00pm - NNW 5 8 1015.0 - 0.0 - - - - - - -
27/07:30pm - NNW 3 4 1015.0 - 0.0 - - - - - - -
27/07:00pm - NW 4 6 1015.0 - 0.0 - - - - - - -
27/06:30pm - NNW 5 7 1014.8 - 0.0 - - - - - - -
27/06:00pm - NNW 3 4 1014.5 - 0.0 - - - - - - -
27/05:30pm - NW 3 5 1014.3 - 0.0 - - - - - - -
27/05:00pm - NW 4 6 1014.2 - 0.0 - - - - - - -
27/04:30pm - NW 5 7 1014.2 - 0.0 - - - - - - -
27/04:00pm - WNW 5 8 1014.1 - 0.0 - - - - - - -
27/03:30pm - W 5 7 1014.2 - 0.0 - - - - - - -
27/03:00pm - WSW 6 9 1014.1 - 0.0 - - - - - - -
27/02:30pm - SW 9 14 1014.2 - 0.0 - - - - - - -
27/02:00pm - SW 10 15 1014.1 - 0.0 - - - - - - -
27/01:30pm - WSW 11 17 1014.1 - 0.0 - - - - - - -
27/01:00pm - WSW 10 14 1014.3 - 0.0 - - - - - - -
27/12:30pm - WSW 11 17 1014.6 - 0.0 - - - - - - -
27/12:00pm - WSW 10 15 1014.9 - 0.0 - - - - - - -
27/11:30am - WSW 11 15 1015.0 - 0.0 - - - - - - -
27/11:00am - W 10 15 1015.2 - 0.0 - - - - - - -
27/10:30am - W 12 18 1015.3 - 0.0 - - - - - - -
27/10:00am - W 9 15 1015.5 - 0.0 - - - - - - -
27/09:30am - W 11 16 1015.5 - 0.0 - - - - - - -
27/09:00am - WNW 9 13 1015.6 - 3.0 - - - - - - -
27/08:30am - WNW 7 11 1015.6 - 3.0 - - - - - - -
27/08:00am - NW 6 10 1015.3 - 3.0 - - - - - - -
27/07:30am - WNW 7 13 1015.2 - 3.0 - - - - - - -
27/07:00am - WNW 6 9 1015.0 - 3.0 - - - - - - -
27/06:30am - NW 6 9 1014.6 - 3.0 - - - - - - -
27/06:00am - NNW 4 8 1014.3 - 3.0 - - - - - - -
27/05:30am - NNW 4 7 1014.2 - 3.0 - - - - - - -
27/05:00am - NNW 4 7 1013.9 - 3.0 - - - - - - -
27/04:30am - NW 6 9 1013.7 - 3.0 - - - - - - -
27/04:00am - WNW 7 10 1013.3 - 3.0 - - - - - - -
27/03:30am - WNW 8 14 1013.4 - 3.0 - - - - - - -
27/03:00am - WNW 8 11 1013.5 - 3.0 - - - - - - -
27/02:30am - WNW 7 11 1013.4 - 3.0 - - - - - - -
27/02:00am - WNW 7 11 1013.2 - 3.0 - - - - - - -
27/01:30am - WNW 8 11 1012.9 - 3.0 - - - - - - -
27/01:00am - WNW 6 9 1012.7 - 3.0 - - - - - - -
27/12:30am - WNW 6 9 1012.5 - 3.0 - - - - - - -
27/12:00am - WNW 6 9 1012.3 - 3.0 - - - - - - -
 
Date/Time
WST
Temp

°C
Wind Pressure Rain
since 9am
mm
Weather Cloud Vis
km
Sea
Height
m
Swell
Dir
 
Speed
knots
Gust
knots
hPa Trend Height
m
Period
s
Dir
26/11:30pm - W 11 14 1012.3 - 3.0 - - - - - - -
26/11:00pm - W 9 13 1012.5 - 3.0 - - - - - - -
26/10:30pm - W 9 13 1012.3 - 3.0 - - - - - - -
26/10:00pm - W 9 13 1012.4 - 3.0 - - - - - - -
26/09:30pm - W 8 14 1012.2 - 3.0 - - - - - - -
26/09:00pm - W 9 13 1012.2 - 3.0 - - - - - - -
26/08:30pm - W 8 12 1011.7 - 3.0 - - - - - - -

Other Formats:

Comma delimited format used in spreadsheet applications
http://www.bom.gov.au/fwo/IDW60701/IDW60701.95635.axf

JavaScript Object Notation format (JSON) in row-major order
http://www.bom.gov.au/fwo/IDW60701/IDW60701.95635.json